createdAt,value
2022-08-02T00:00:12.662Z,7.90
2022-08-02T00:02:39.760Z,9.90
2022-08-02T00:05:07.260Z,8.15
2022-08-02T00:07:40.521Z,9.80
2022-08-02T00:10:10.720Z,9.05
2022-08-02T00:12:38.083Z,9.20
2022-08-02T00:15:07.339Z,7.90
2022-08-02T00:17:34.255Z,8.55
2022-08-02T00:20:02.198Z,7.55
2022-08-02T00:22:29.073Z,7.22
2022-08-02T00:24:56.137Z,9.80
2022-08-02T00:27:23.035Z,5.47
2022-08-02T00:29:53.354Z,11.65
2022-08-02T00:32:21.725Z,11.88
2022-08-02T00:34:48.596Z,7.07
2022-08-02T00:37:15.484Z,8.02
2022-08-02T00:39:43.062Z,7.60
2022-08-02T00:42:10.789Z,10.50
2022-08-02T00:44:37.922Z,6.20
2022-08-02T00:47:04.869Z,10.48
2022-08-02T00:49:32.990Z,9.05
2022-08-02T00:52:01.371Z,8.75
2022-08-02T00:54:28.186Z,14.80
2022-08-02T00:56:54.937Z,8.60
2022-08-02T00:59:21.738Z,8.88
2022-08-02T01:01:56.102Z,7.30
2022-08-02T01:04:30.600Z,7.88
2022-08-02T01:07:13.557Z,12.55
2022-08-02T01:09:45.004Z,12.10
2022-08-02T01:12:12.879Z,7.90
2022-08-02T01:14:45.490Z,9.75
2022-08-02T01:17:33.310Z,8.75
2022-08-02T01:20:37.040Z,9.48
2022-08-02T01:23:26.079Z,8.98
2022-08-02T01:25:58.982Z,7.82
2022-08-02T01:29:08.655Z,10.10
2022-08-02T01:32:19.370Z,8.80
2022-08-02T01:34:53.092Z,10.73
2022-08-02T01:37:32.363Z,8.55
2022-08-02T01:40:05.113Z,6.80
2022-08-02T01:42:33.275Z,12.23
2022-08-02T01:45:01.706Z,8.82
2022-08-02T01:47:33.298Z,7.65
2022-08-02T01:50:02.736Z,8.60
2022-08-02T01:52:32.562Z,13.80
2022-08-02T01:55:18.407Z,8.75
2022-08-02T01:57:49.708Z,9.82
2022-08-02T02:00:17.835Z,8.40
2022-08-02T02:02:47.551Z,7.85
2022-08-02T02:05:17.057Z,10.13
2022-08-02T02:07:45.626Z,10.82
2022-08-02T02:10:15.569Z,6.95
2022-08-02T02:12:46.685Z,8.70
2022-08-02T02:15:14.186Z,8.38
2022-08-02T02:18:11.865Z,8.27
2022-08-02T02:20:34.521Z,9.35
2022-08-02T02:23:01.757Z,8.88
2022-08-02T02:25:35.618Z,10.05
2022-08-02T02:28:30.217Z,12.88
2022-08-02T02:31:19.343Z,9.68
2022-08-02T02:33:55.015Z,7.80
2022-08-02T02:36:22.992Z,8.25
2022-08-02T02:38:51.739Z,8.48
2022-08-02T02:41:21.089Z,7.40
2022-08-02T02:43:49.083Z,11.13
2022-08-02T02:46:18.189Z,8.65
2022-08-02T02:48:45.233Z,7.68
2022-08-02T02:51:13.931Z,9.13
2022-08-02T02:54:31.015Z,9.27
2022-08-02T02:56:30.283Z,9.30
2022-08-02T02:58:57.678Z,9.68
2022-08-02T03:01:55.544Z,7.22
2022-08-02T03:04:21.963Z,6.38
2022-08-02T03:06:48.927Z,6.35
2022-08-02T03:09:15.652Z,8.48
2022-08-02T03:11:42.823Z,10.52
2022-08-02T03:14:11.670Z,9.32
2022-08-02T03:16:53.120Z,8.00
2022-08-02T03:19:22.279Z,9.73
2022-08-02T03:21:57.473Z,9.00
2022-08-02T03:24:28.292Z,8.75
2022-08-02T03:26:55.758Z,8.43
2022-08-02T03:29:22.603Z,6.45
2022-08-02T03:31:49.892Z,10.63
2022-08-02T03:34:16.689Z,9.52
2022-08-02T03:36:48.081Z,8.38
2022-08-02T03:39:15.810Z,7.88
2022-08-02T03:41:43.822Z,9.60
2022-08-02T03:44:12.031Z,9.15
2022-08-02T03:46:39.978Z,8.13
2022-08-02T03:49:11.058Z,7.00
2022-08-02T03:51:38.507Z,8.02
2022-08-02T03:54:05.484Z,11.18
2022-08-02T03:56:32.242Z,8.43
2022-08-02T03:59:12.946Z,8.73
2022-08-02T04:01:42.057Z,9.95
2022-08-02T04:04:08.951Z,6.20
2022-08-02T04:06:35.885Z,6.53
2022-08-02T04:09:07.043Z,9.35
2022-08-02T04:11:33.863Z,5.38
2022-08-02T04:14:02.990Z,3.95
2022-08-02T04:16:39.729Z,6.78
2022-08-02T04:19:09.388Z,7.25
2022-08-02T04:21:50.465Z,9.85
2022-08-02T04:24:32.048Z,6.15
2022-08-02T04:27:01.131Z,7.10
2022-08-02T04:29:48.976Z,14.20
2022-08-02T04:32:17.187Z,6.88
2022-08-02T04:35:11.331Z,7.47
2022-08-02T04:37:32.612Z,8.02
2022-08-02T04:39:59.558Z,8.75
2022-08-02T04:42:27.201Z,6.72
2022-08-02T04:44:54.420Z,7.70
2022-08-02T04:47:40.001Z,8.13
2022-08-02T04:50:09.448Z,7.93
2022-08-02T04:52:36.204Z,5.90
2022-08-02T04:55:03.261Z,5.18
2022-08-02T04:57:52.858Z,12.65
2022-08-02T05:00:20.353Z,5.70
2022-08-02T05:02:47.711Z,6.22
2022-08-02T05:05:14.723Z,6.20
2022-08-02T05:07:41.595Z,6.25
2022-08-02T05:10:08.663Z,5.82
2022-08-02T05:12:35.404Z,7.70
2022-08-02T05:15:02.141Z,10.55
2022-08-02T05:17:28.803Z,9.32
2022-08-02T05:19:55.583Z,7.25
2022-08-02T05:22:22.252Z,8.15
2022-08-02T05:24:48.944Z,7.72
2022-08-02T05:27:16.481Z,8.60
2022-08-02T05:29:53.723Z,8.85
2022-08-02T05:32:23.758Z,9.23
2022-08-02T05:34:53.139Z,7.10
2022-08-02T05:37:20.146Z,6.43
2022-08-02T05:39:55.850Z,6.55
2022-08-02T05:42:24.047Z,7.05
2022-08-02T05:44:50.850Z,7.82
2022-08-02T05:47:17.916Z,8.45
2022-08-02T05:49:44.762Z,7.97
2022-08-02T05:52:17.603Z,6.57
2022-08-02T05:54:44.478Z,10.82
2022-08-02T05:57:29.061Z,6.07
2022-08-02T06:00:11.389Z,9.48
2022-08-02T06:03:04.902Z,7.78
2022-08-02T06:05:40.132Z,8.63
2022-08-02T06:08:11.099Z,7.38
2022-08-02T06:10:38.647Z,10.57
2022-08-02T06:13:18.510Z,7.07
2022-08-02T06:15:53.369Z,8.52
2022-08-02T06:18:27.738Z,7.35
2022-08-02T06:22:29.638Z,8.15
2022-08-02T06:23:57.853Z,8.80
2022-08-02T06:26:28.005Z,7.72
2022-08-02T06:28:56.278Z,9.13
2022-08-02T06:31:23.114Z,9.43
2022-08-02T06:33:49.981Z,8.60
2022-08-02T06:36:37.596Z,7.18
2022-08-02T06:39:13.839Z,6.32
2022-08-02T06:41:42.388Z,6.45
2022-08-02T06:44:44.737Z,4.68
2022-08-02T06:47:10.183Z,8.02
2022-08-02T06:49:51.963Z,8.55
2022-08-02T06:52:28.322Z,10.35
2022-08-02T06:54:57.687Z,5.30
2022-08-02T06:57:24.363Z,5.43
2022-08-02T06:59:51.772Z,3.35
2022-08-02T07:02:18.569Z,3.85
2022-08-02T07:04:45.392Z,4.85
2022-08-02T07:07:12.147Z,9.93
2022-08-02T07:09:38.954Z,4.78
2022-08-02T07:12:22.752Z,3.92
2022-08-02T07:14:49.646Z,5.72
2022-08-02T07:17:16.402Z,4.68
2022-08-02T07:19:43.609Z,5.85
2022-08-02T07:22:10.541Z,7.03
2022-08-02T07:24:37.359Z,4.03
2022-08-02T07:27:12.559Z,6.75
2022-08-02T07:29:46.179Z,7.90
2022-08-02T07:32:18.777Z,6.07
2022-08-02T07:34:51.334Z,7.47
2022-08-02T07:37:53.498Z,10.98
2022-08-02T07:40:20.341Z,7.32
2022-08-02T07:42:56.492Z,5.90
2022-08-02T07:45:27.268Z,10.77
2022-08-02T07:47:54.368Z,10.02
2022-08-02T07:50:21.730Z,4.35
2022-08-02T07:52:49.384Z,5.78
2022-08-02T07:55:18.150Z,9.02
2022-08-02T07:57:46.711Z,8.73
2022-08-02T08:00:16.314Z,8.68
2022-08-02T08:02:43.701Z,7.25
2022-08-02T08:05:10.969Z,9.25
2022-08-02T08:07:39.045Z,8.90
2022-08-02T08:10:07.055Z,4.63
2022-08-02T08:12:34.165Z,8.23
2022-08-02T08:15:01.235Z,9.77
2022-08-02T08:17:27.980Z,7.63
2022-08-02T08:19:54.905Z,6.93
2022-08-02T08:22:22.047Z,7.65
2022-08-02T08:24:49.944Z,7.22
2022-08-02T08:27:18.476Z,6.07
2022-08-02T08:29:46.043Z,5.32
2022-08-02T08:32:17.462Z,6.63
2022-08-02T08:34:49.426Z,7.72
2022-08-02T08:39:57.663Z,6.47
2022-08-02T08:42:30.516Z,5.82
2022-08-02T08:44:58.014Z,7.25
2022-08-02T08:47:37.989Z,6.63
2022-08-02T08:50:32.599Z,8.30
2022-08-02T08:53:05.116Z,6.57
2022-08-02T08:55:33.778Z,8.27
2022-08-02T08:58:02.570Z,7.03
2022-08-02T09:00:35.553Z,5.53
2022-08-02T09:03:04.431Z,7.07
2022-08-02T09:05:31.777Z,8.20
2022-08-02T09:07:58.610Z,9.02
2022-08-02T09:10:37.876Z,9.73
2022-08-02T09:13:39.158Z,7.90
2022-08-02T09:16:11.544Z,12.30
2022-08-02T09:18:45.741Z,6.97
2022-08-02T09:21:15.828Z,6.90
2022-08-02T09:23:48.230Z,6.03
2022-08-02T09:26:17.185Z,8.75
2022-08-02T09:28:46.619Z,7.60
2022-08-02T09:31:16.199Z,7.65
2022-08-02T09:33:44.600Z,8.77
2022-08-02T09:36:16.344Z,4.97
2022-08-02T09:39:06.377Z,5.85
2022-08-02T09:41:35.418Z,4.75
2022-08-02T09:44:06.768Z,7.43
2022-08-02T09:46:39.191Z,8.77
2022-08-02T09:49:14.260Z,6.82
2022-08-02T09:51:50.284Z,7.57
2022-08-02T09:54:19.535Z,7.05
2022-08-02T09:56:54.824Z,5.97
2022-08-02T09:59:24.966Z,6.75
2022-08-02T10:02:01.229Z,6.13
2022-08-02T10:04:30.884Z,5.35
2022-08-02T10:07:04.414Z,8.38
2022-08-02T10:09:32.292Z,9.90
2022-08-02T10:12:00.209Z,5.78
2022-08-02T10:14:28.082Z,4.70
2022-08-02T10:16:57.321Z,4.82
2022-08-02T10:20:00.150Z,5.53
2022-08-02T10:22:15.420Z,3.80
2022-08-02T10:24:48.434Z,6.05
2022-08-02T10:27:19.946Z,4.57
2022-08-02T10:29:55.659Z,5.35
2022-08-02T10:32:42.584Z,5.57
2022-08-02T10:35:25.206Z,5.13
2022-08-02T10:37:56.518Z,5.38
2022-08-02T10:40:23.442Z,6.97
2022-08-02T10:42:55.409Z,4.55
2022-08-02T10:45:22.847Z,6.70
2022-08-02T10:48:01.682Z,4.95
2022-08-02T10:50:46.991Z,8.95
2022-08-02T10:53:33.703Z,4.30
2022-08-02T10:56:06.238Z,6.68
2022-08-02T10:58:36.425Z,4.75
2022-08-02T11:01:38.983Z,4.88
2022-08-02T11:04:10.523Z,6.03
2022-08-02T11:07:26.762Z,6.88
2022-08-02T11:09:53.593Z,3.50
2022-08-02T11:12:21.291Z,4.47
2022-08-02T11:15:07.360Z,5.45
2022-08-02T11:17:58.914Z,6.43
2022-08-02T11:20:27.285Z,4.30
2022-08-02T11:22:55.959Z,5.70
2022-08-02T11:25:22.752Z,9.55
2022-08-02T11:27:50.307Z,4.22
2022-08-02T11:30:17.430Z,4.38
2022-08-02T11:32:44.841Z,4.60
2022-08-02T11:35:12.042Z,4.07
2022-08-02T11:37:41.394Z,6.00
2022-08-02T11:40:19.131Z,4.43
2022-08-02T11:42:53.550Z,3.97
2022-08-02T11:45:29.300Z,4.57
2022-08-02T11:47:57.324Z,5.40
2022-08-02T11:50:29.671Z,4.00
2022-08-02T11:52:57.644Z,3.15
2022-08-02T11:55:28.956Z,5.30
2022-08-02T11:58:05.962Z,7.45
2022-08-02T12:00:33.317Z,5.03
2022-08-02T12:03:00.319Z,4.32
2022-08-02T12:06:05.587Z,4.45
2022-08-02T12:08:14.214Z,4.50
2022-08-02T12:10:50.051Z,4.32
2022-08-02T12:13:16.884Z,3.63
2022-08-02T12:15:46.135Z,4.55
2022-08-02T12:18:41.796Z,4.25
2022-08-02T12:23:59.292Z,3.85
2022-08-02T12:26:27.961Z,1.85
2022-08-02T12:29:01.407Z,4.28
2022-08-02T12:31:57.267Z,5.00
2022-08-02T12:34:31.735Z,2.83
2022-08-02T12:37:07.248Z,3.72
2022-08-02T12:39:46.397Z,5.35
2022-08-02T12:42:15.707Z,6.47
2022-08-02T12:44:53.261Z,3.35
2022-08-02T12:47:21.820Z,2.20
2022-08-02T12:50:15.303Z,5.10
2022-08-02T12:52:42.072Z,3.75
2022-08-02T12:56:00.786Z,5.20
2022-08-02T12:58:15.514Z,1.92
2022-08-02T13:00:53.022Z,2.38
2022-08-02T13:06:39.443Z,3.30
2022-08-02T13:08:55.409Z,2.97
2022-08-02T13:11:22.963Z,2.40
2022-08-02T13:13:49.818Z,4.22
2022-08-02T13:16:17.262Z,4.57
2022-08-02T13:18:45.664Z,2.97
2022-08-02T13:21:19.753Z,1.83
2022-08-02T13:23:59.469Z,2.80
2022-08-02T13:26:31.048Z,2.95
2022-08-02T13:28:58.250Z,2.40
2022-08-02T13:31:36.084Z,3.17
2022-08-02T13:34:08.489Z,2.20
2022-08-02T13:36:36.328Z,4.57
2022-08-02T13:39:04.538Z,3.13
2022-08-02T13:41:32.623Z,3.60
2022-08-02T13:44:08.868Z,5.20
2022-08-02T13:46:45.295Z,2.65
2022-08-02T13:49:19.386Z,1.40
2022-08-02T13:51:47.829Z,2.83
2022-08-02T13:54:15.505Z,2.55
2022-08-02T13:56:42.506Z,2.60
2022-08-02T13:59:55.322Z,2.53
2022-08-02T14:01:56.825Z,2.28
2022-08-02T14:04:24.330Z,4.03
2022-08-02T14:06:51.559Z,3.85
2022-08-02T14:09:18.517Z,1.45
2022-08-02T14:11:46.389Z,2.25
2022-08-02T14:14:16.281Z,4.05
2022-08-02T14:16:45.116Z,3.45
2022-08-02T14:19:16.483Z,4.60
2022-08-02T14:21:46.507Z,2.72
2022-08-02T14:24:19.316Z,5.35
2022-08-02T14:26:47.173Z,3.90
2022-08-02T14:29:15.019Z,2.33
2022-08-02T14:31:44.726Z,4.00
2022-08-02T14:34:13.301Z,3.47
2022-08-02T14:36:40.461Z,4.85
2022-08-02T14:39:07.307Z,3.55
2022-08-02T14:41:59.604Z,3.80
2022-08-02T14:44:23.562Z,2.92
2022-08-02T14:46:51.573Z,4.07
2022-08-02T14:49:25.306Z,3.63
2022-08-02T14:51:55.873Z,3.78
2022-08-02T14:54:29.978Z,4.80
2022-08-02T14:57:02.464Z,4.07
2022-08-02T14:59:30.290Z,2.42
2022-08-02T15:01:58.235Z,3.03
2022-08-02T15:04:25.318Z,4.85
2022-08-02T15:06:52.181Z,2.50
2022-08-02T15:09:19.435Z,2.40
2022-08-02T15:11:48.839Z,4.22
2022-08-02T15:14:25.567Z,3.45
2022-08-02T15:16:58.529Z,3.38
2022-08-02T15:19:41.616Z,5.45
2022-08-02T15:22:16.120Z,2.97
2022-08-02T15:24:45.352Z,3.42
2022-08-02T15:27:15.513Z,3.13
2022-08-02T15:29:46.656Z,4.43
2022-08-02T15:32:18.827Z,4.22
2022-08-02T15:34:47.693Z,3.78
2022-08-02T15:37:14.592Z,4.18
2022-08-02T15:39:42.135Z,5.35
2022-08-02T15:42:08.818Z,4.50
2022-08-02T15:44:35.769Z,3.92
2022-08-02T15:47:07.002Z,4.90
2022-08-02T15:49:38.078Z,2.95
2022-08-02T15:52:07.617Z,3.50
2022-08-02T15:54:34.377Z,4.05
2022-08-02T15:57:01.148Z,4.75
2022-08-02T15:59:28.323Z,4.03
2022-08-02T16:01:55.439Z,3.33
2022-08-02T16:04:22.479Z,2.80
2022-08-02T16:06:49.386Z,3.85
2022-08-02T16:09:17.171Z,6.07
2022-08-02T16:11:44.070Z,3.10
2022-08-02T16:14:10.841Z,5.60
2022-08-02T16:16:37.826Z,4.82
2022-08-02T16:19:47.040Z,5.00
2022-08-02T16:21:54.212Z,2.83
2022-08-02T16:24:21.745Z,3.95
2022-08-02T16:26:48.936Z,6.07
2022-08-02T16:29:19.051Z,6.47
2022-08-02T16:31:49.637Z,3.92
2022-08-02T16:34:17.235Z,3.20
2022-08-02T16:36:44.547Z,3.88
2022-08-02T16:39:12.194Z,5.15
2022-08-02T16:41:50.888Z,3.88
2022-08-02T16:44:28.955Z,4.15
2022-08-02T16:47:01.038Z,3.42
2022-08-02T16:50:06.520Z,7.07
2022-08-02T16:52:16.582Z,6.25
2022-08-02T16:54:49.937Z,5.63
2022-08-02T16:57:20.114Z,7.53
2022-08-02T16:59:58.243Z,5.07
2022-08-02T17:02:27.822Z,9.90
2022-08-02T17:04:54.825Z,4.45
2022-08-02T17:08:15.198Z,5.35
2022-08-02T17:10:09.743Z,4.03
2022-08-02T17:12:37.784Z,4.97
2022-08-02T17:16:07.449Z,6.22
2022-08-02T17:17:53.267Z,6.25
2022-08-02T17:20:20.735Z,5.68
2022-08-02T17:22:47.800Z,4.35
2022-08-02T17:25:17.489Z,5.50
2022-08-02T17:27:45.761Z,4.43
2022-08-02T17:30:13.661Z,6.20
2022-08-02T17:32:45.543Z,4.70
2022-08-02T17:35:15.745Z,4.53
2022-08-02T17:37:54.611Z,3.65
2022-08-02T17:40:27.082Z,5.35
2022-08-02T17:42:53.834Z,5.70
2022-08-02T17:45:25.911Z,4.15
2022-08-02T17:48:07.841Z,6.10
2022-08-02T17:50:36.069Z,6.53
2022-08-02T17:53:04.157Z,6.13
2022-08-02T17:55:33.124Z,4.93
2022-08-02T17:58:00.160Z,2.67
2022-08-02T18:00:35.130Z,8.32
2022-08-02T18:03:06.130Z,7.25
2022-08-02T18:05:40.055Z,4.70
2022-08-02T18:08:22.881Z,11.23
2022-08-02T18:10:55.695Z,12.00
2022-08-02T18:13:23.176Z,17.33
2022-08-02T18:15:57.048Z,13.05
2022-08-02T18:18:29.179Z,16.55
2022-08-02T18:20:58.053Z,14.32
2022-08-02T18:23:25.297Z,16.95
2022-08-02T18:25:55.427Z,14.05
2022-08-02T18:28:26.839Z,14.50
2022-08-02T18:30:53.951Z,16.98
2022-08-02T18:33:57.104Z,18.85
2022-08-02T18:36:11.504Z,16.73
2022-08-02T18:38:51.843Z,16.48
2022-08-02T18:41:19.319Z,18.35
2022-08-02T18:43:48.423Z,14.98
2022-08-02T18:46:17.317Z,14.93
2022-08-02T18:48:48.286Z,12.57
2022-08-02T18:51:19.204Z,13.38
2022-08-02T18:56:19.777Z,6.15
2022-08-02T18:58:54.681Z,8.02
2022-08-02T19:04:03.888Z,5.97
2022-08-02T19:06:31.032Z,6.88
2022-08-02T19:09:06.200Z,6.43
2022-08-02T19:11:47.586Z,7.65
2022-08-02T19:14:24.096Z,7.22
2022-08-02T19:16:56.321Z,12.05
2022-08-02T19:19:28.502Z,5.45
2022-08-02T19:22:15.925Z,8.30
2022-08-02T19:24:45.809Z,5.63
2022-08-02T19:27:15.041Z,5.47
2022-08-02T19:29:48.816Z,6.30
2022-08-02T19:32:42.031Z,4.95
2022-08-02T19:35:19.699Z,8.00
2022-08-02T19:37:52.392Z,4.93
2022-08-02T19:40:24.204Z,7.95
2022-08-02T19:44:22.906Z,5.32
2022-08-02T19:45:50.814Z,7.55
2022-08-02T19:48:24.447Z,8.32
2022-08-02T19:50:56.149Z,7.32
2022-08-02T19:53:28.925Z,4.95
2022-08-02T19:56:00.585Z,6.40
2022-08-02T19:58:30.987Z,8.88
2022-08-02T20:00:59.344Z,10.90
2022-08-02T20:03:29.970Z,4.68
2022-08-02T20:06:17.794Z,5.80
2022-08-02T20:08:52.855Z,7.47
2022-08-02T20:11:23.304Z,4.15
2022-08-02T20:13:52.741Z,7.47
2022-08-02T20:16:27.245Z,6.13
2022-08-02T20:18:56.321Z,6.57
2022-08-02T20:21:36.366Z,5.90
2022-08-02T20:24:09.367Z,7.32
2022-08-02T20:26:47.057Z,8.55
2022-08-02T20:29:15.467Z,7.65
2022-08-02T20:32:03.001Z,5.75
2022-08-02T20:34:29.768Z,9.30
2022-08-02T20:36:56.537Z,5.65
2022-08-02T20:39:23.803Z,9.13
2022-08-02T20:42:10.068Z,5.00
2022-08-02T20:44:53.947Z,6.22
2022-08-02T20:47:27.830Z,5.43
2022-08-02T20:50:30.275Z,5.93
2022-08-02T20:52:57.593Z,5.65
2022-08-02T20:55:25.042Z,6.78
2022-08-02T20:58:00.303Z,5.97
2022-08-02T21:00:28.272Z,7.32
2022-08-02T21:02:55.691Z,5.05
2022-08-02T21:05:26.909Z,7.22
2022-08-02T21:08:13.758Z,8.80
2022-08-02T21:10:43.683Z,5.68
2022-08-02T21:13:18.978Z,8.02
2022-08-02T21:15:49.587Z,6.70
2022-08-02T21:18:23.733Z,8.75
2022-08-02T21:20:57.766Z,12.23
2022-08-02T21:23:24.507Z,7.25
2022-08-02T21:25:57.487Z,5.57
2022-08-02T21:28:38.295Z,8.57
2022-08-02T21:31:13.524Z,7.90
2022-08-02T21:33:57.075Z,8.20
2022-08-02T21:36:30.460Z,9.60
2022-08-02T21:39:05.249Z,9.93
2022-08-02T21:41:39.499Z,6.80
2022-08-02T21:44:18.880Z,9.02
2022-08-02T21:46:49.284Z,6.93
2022-08-02T21:49:20.967Z,6.95
2022-08-02T21:52:07.507Z,9.82
2022-08-02T21:54:35.474Z,6.75
2022-08-02T21:57:06.948Z,6.20
2022-08-02T21:59:35.042Z,5.28
2022-08-02T22:02:02.165Z,5.85
2022-08-02T22:04:29.062Z,9.45
2022-08-02T22:06:57.034Z,7.60
2022-08-02T22:09:44.685Z,5.35
2022-08-02T22:12:17.991Z,6.95
2022-08-02T22:14:54.088Z,5.13
2022-08-02T22:17:51.686Z,9.35
2022-08-02T22:20:12.442Z,7.63
2022-08-02T22:22:39.787Z,7.18
2022-08-02T22:25:10.243Z,8.05
2022-08-02T22:28:36.732Z,5.30
2022-08-02T22:30:41.050Z,7.35
2022-08-02T22:36:14.054Z,7.68
2022-08-02T22:38:44.390Z,6.07
2022-08-02T22:42:01.889Z,8.00
2022-08-02T22:44:18.630Z,5.18
2022-08-02T22:46:46.524Z,9.38
2022-08-02T22:49:37.186Z,5.60
2022-08-02T22:51:59.994Z,6.20
2022-08-02T22:54:26.732Z,5.00
2022-08-02T22:56:53.437Z,4.00
2022-08-02T22:59:05.141Z,8.95
2022-08-02T22:59:20.323Z,4.63
2022-08-02T23:02:06.487Z,4.38
2022-08-02T23:04:33.233Z,6.25
2022-08-02T23:07:00.001Z,4.72
2022-08-02T23:09:26.834Z,7.80
2022-08-02T23:11:53.698Z,5.30
2022-08-02T23:14:20.623Z,4.13
2022-08-02T23:17:07.622Z,5.50
2022-08-02T23:19:52.691Z,7.00
2022-08-02T23:22:25.136Z,6.03
2022-08-02T23:24:57.764Z,5.18
2022-08-02T23:27:24.636Z,5.03
2022-08-02T23:29:51.453Z,4.40
2022-08-02T23:32:18.471Z,5.63
2022-08-02T23:34:52.715Z,3.80
2022-08-02T23:37:19.640Z,4.97
2022-08-02T23:39:46.575Z,7.93
2022-08-02T23:42:13.462Z,8.27
2022-08-02T23:44:40.553Z,6.68
2022-08-02T23:47:07.661Z,4.32
2022-08-02T23:49:34.798Z,5.18
2022-08-02T23:52:02.206Z,5.57
2022-08-02T23:54:29.385Z,5.95
2022-08-02T23:56:56.193Z,5.90
2022-08-02T23:59:23.153Z,5.47
